Time;durP1;ratioP1;P1;durP2;ratioP2;P2;SDS_P1;SDS_P2;PMS_P1;PMS_P2;Temp;Humidity;BMP_temperature;BMP_pressure;BME280_temperature;BME280_humidity;BME280_pressure;Samples;Min_cycle;Max_cycle;Signal;HPM_P1;HPM_P2
2024/01/25 00:01:56;;;;;;;1.58;1.48;;;6.00;99.90;;;;;;4973295;28;20228;-79
2024/01/25 00:04:23;;;;;;;1.58;1.50;;;6.00;99.90;;;;;;4970103;28;20211;-79
2024/01/25 00:06:51;;;;;;;0.93;0.93;;;6.10;99.90;;;;;;4968413;28;20205;-79
2024/01/25 00:09:18;;;;;;;10.13;1.23;;;6.10;99.90;;;;;;4969408;28;20307;-80
2024/01/25 00:11:45;;;;;;;0.50;0.50;;;6.20;99.90;;;;;;4975303;28;20437;-81
2024/01/25 00:14:12;;;;;;;0.60;0.60;;;6.20;99.90;;;;;;4975712;28;20272;-80
2024/01/25 00:16:42;;;;;;;0.50;0.50;;;6.20;99.90;;;;;;4980466;28;20208;-80
2024/01/25 00:19:10;;;;;;;1.27;1.25;;;6.10;99.90;;;;;;4986907;28;20258;-80
2024/01/25 00:21:43;;;;;;;2.35;1.35;;;6.20;99.90;;;;;;4976984;28;20201;-80
2024/01/25 00:24:14;;;;;;;0.50;0.50;;;6.20;99.90;;;;;;4959662;28;20302;-77
2024/01/25 00:26:40;;;;;;;0.60;0.60;;;6.40;99.90;;;;;;4974291;28;20279;-79
2024/01/25 00:29:07;;;;;;;1.15;1.15;;;6.40;99.90;;;;;;4976726;28;20275;-80
2024/01/25 00:31:34;;;;;;;0.63;0.63;;;6.40;99.90;;;;;;4971342;28;20260;-80
2024/01/25 00:34:03;;;;;;;0.50;0.50;;;6.40;99.90;;;;;;4988108;28;20254;-79
2024/01/25 00:36:30;;;;;;;0.50;0.50;;;6.20;99.90;;;;;;4996386;28;20242;-81
2024/01/25 00:38:58;;;;;;;0.95;0.95;;;6.10;99.90;;;;;;4982804;28;20225;-80
2024/01/25 00:41:25;;;;;;;0.70;0.70;;;6.20;99.90;;;;;;4979223;28;20233;-81
2024/01/25 00:43:53;;;;;;;3.47;3.15;;;6.30;99.90;;;;;;4959642;28;20203;-84
2024/01/25 00:46:20;;;;;;;1.15;1.15;;;6.40;99.90;;;;;;4978720;28;20494;-78
2024/01/25 00:48:48;;;;;;;0.50;0.50;;;6.30;99.90;;;;;;4980367;28;20497;-78
2024/01/25 00:51:21;;;;;;;0.50;0.50;;;6.50;99.90;;;;;;4975662;28;20237;-80
2024/01/25 00:53:48;;;;;;;2.13;1.25;;;6.60;99.90;;;;;;4970759;28;20242;-80
2024/01/25 00:56:15;;;;;;;0.85;0.85;;;6.50;99.90;;;;;;4985687;28;20226;-80
2024/01/25 00:58:43;;;;;;;0.50;0.50;;;6.50;99.90;;;;;;4976983;28;20245;-79
2024/01/25 01:01:12;;;;;;;0.50;0.50;;;6.70;99.90;;;;;;4994646;28;20194;-79
2024/01/25 01:03:39;;;;;;;0.50;0.50;;;6.60;99.90;;;;;;4999120;28;20186;-79
2024/01/25 01:06:07;;;;;;;0.50;0.50;;;6.60;99.90;;;;;;4990575;28;20204;-79
2024/01/25 01:08:34;;;;;;;1.05;0.98;;;6.50;99.90;;;;;;4954369;29;20399;-80
2024/01/25 01:11:02;;;;;;;0.50;0.50;;;6.60;99.90;;;;;;4973279;28;20383;-81
2024/01/25 01:13:29;;;;;;;1.40;1.30;;;6.50;99.90;;;;;;4969674;28;20206;-80
2024/01/25 01:15:56;;;;;;;0.50;0.50;;;6.30;99.90;;;;;;4975103;28;20230;-81
2024/01/25 01:18:23;;;;;;;0.50;0.50;;;6.40;99.90;;;;;;4978347;28;20236;-79
2024/01/25 01:20:50;;;;;;;0.50;0.50;;;6.60;99.90;;;;;;4974725;28;20243;-78
2024/01/25 01:23:17;;;;;;;1.02;1.02;;;6.80;99.90;;;;;;4977511;28;20221;-82
2024/01/25 01:25:45;;;;;;;0.50;0.50;;;6.60;99.90;;;;;;4979543;28;20405;-80
2024/01/25 01:28:12;;;;;;;2.15;1.25;;;6.70;99.90;;;;;;4957858;28;20227;-79
2024/01/25 01:30:41;;;;;;;0.50;0.50;;;6.80;99.90;;;;;;4969396;28;20209;-78
2024/01/25 01:33:09;;;;;;;0.50;0.50;;;6.80;99.90;;;;;;4977949;28;20331;-81
2024/01/25 01:35:36;;;;;;;0.60;0.60;;;6.90;99.90;;;;;;4957680;28;20314;-82
2024/01/25 01:38:05;;;;;;;0.50;0.50;;;6.90;99.90;;;;;;4982445;28;20205;-80
2024/01/25 01:40:32;;;;;;;2.88;2.17;;;6.90;99.90;;;;;;4952416;29;20203;-80
2024/01/25 01:43:02;;;;;;;0.60;0.60;;;7.00;99.90;;;;;;4974703;28;20490;-77
2024/01/25 01:45:29;;;;;;;0.60;0.60;;;6.80;99.90;;;;;;4967414;28;20240;-83
2024/01/25 01:47:58;;;;;;;0.75;0.75;;;7.10;99.90;;;;;;4960674;28;20198;-78
2024/01/25 01:50:27;;;;;;;1.77;1.77;;;7.00;99.90;;;;;;4970519;28;20206;-81
2024/01/25 01:52:55;;;;;;;2.20;2.00;;;6.80;99.90;;;;;;4983963;28;20198;-77
2024/01/25 01:55:23;;;;;;;0.90;0.90;;;6.80;99.90;;;;;;4968327;28;20222;-81
2024/01/25 01:57:50;;;;;;;0.50;0.50;;;6.80;99.90;;;;;;4974753;28;20395;-80
2024/01/25 02:00:17;;;;;;;0.50;0.50;;;6.80;99.90;;;;;;4993494;28;20202;-81
2024/01/25 02:02:45;;;;;;;0.70;0.70;;;6.80;99.90;;;;;;4975127;28;20498;-78
2024/01/25 02:05:13;;;;;;;0.50;0.50;;;6.80;99.90;;;;;;4977381;28;20209;-80
2024/01/25 02:07:40;;;;;;;0.50;0.50;;;6.80;99.90;;;;;;4984835;28;20226;-80
2024/01/25 02:10:08;;;;;;;1.40;1.30;;;6.90;99.90;;;;;;4958920;28;20245;-78
2024/01/25 02:12:36;;;;;;;1.02;0.98;;;6.80;99.90;;;;;;4973939;28;20381;-82
2024/01/25 02:15:04;;;;;;;1.88;1.27;;;6.70;99.90;;;;;;4979494;28;20222;-78
2024/01/25 02:17:31;;;;;;;6.47;1.35;;;6.80;99.90;;;;;;4948871;28;20211;-77
2024/01/25 02:19:58;;;;;;;1.25;1.25;;;6.80;99.90;;;;;;4972778;28;20484;-78
2024/01/25 02:22:25;;;;;;;10.02;1.95;;;6.70;99.90;;;;;;4980599;28;20392;-80
2024/01/25 02:24:53;;;;;;;1.92;1.85;;;6.70;99.90;;;;;;4971077;28;20492;-80
2024/01/25 02:27:20;;;;;;;0.50;0.50;;;6.70;99.90;;;;;;4972162;28;20296;-81
2024/01/25 02:29:47;;;;;;;0.60;0.60;;;6.60;99.90;;;;;;4970968;28;20221;-81
2024/01/25 02:32:14;;;;;;;0.50;0.50;;;6.80;99.90;;;;;;4981278;28;20339;-81
2024/01/25 02:34:41;;;;;;;0.90;0.90;;;6.60;99.90;;;;;;4985655;28;20461;-80
2024/01/25 02:37:12;;;;;;;0.50;0.50;;;6.70;99.90;;;;;;4977272;28;20198;-79
2024/01/25 02:39:39;;;;;;;0.50;0.50;;;6.60;99.90;;;;;;4984079;28;20443;-78
2024/01/25 02:42:06;;;;;;;1.60;1.50;;;6.70;99.90;;;;;;4978557;28;20534;-78
2024/01/25 02:44:33;;;;;;;0.60;0.60;;;6.70;99.90;;;;;;4982789;28;20486;-79
2024/01/25 02:47:01;;;;;;;0.60;0.60;;;6.60;99.90;;;;;;4960513;28;20203;-77
2024/01/25 02:49:28;;;;;;;0.60;0.60;;;6.60;99.90;;;;;;4987018;28;20202;-80
2024/01/25 02:51:55;;;;;;;0.70;0.70;;;6.70;99.90;;;;;;4999223;28;20205;-80
2024/01/25 02:54:22;;;;;;;0.60;0.60;;;6.80;99.90;;;;;;4981184;28;20190;-82
2024/01/25 02:56:49;;;;;;;1.00;0.95;;;6.80;99.90;;;;;;4978612;28;20250;-81
2024/01/25 02:59:16;;;;;;;0.50;0.50;;;6.80;99.90;;;;;;4991021;28;20203;-81
2024/01/25 03:01:44;;;;;;;0.50;0.50;;;6.80;99.90;;;;;;4991407;28;20225;-80
2024/01/25 03:04:12;;;;;;;0.50;0.50;;;6.70;99.90;;;;;;4980175;28;20205;-79
2024/01/25 03:06:40;;;;;;;0.50;0.50;;;6.80;99.90;;;;;;4976796;28;20225;-80
2024/01/25 03:09:07;;;;;;;0.50;0.50;;;6.70;99.90;;;;;;4981081;28;20198;-81
2024/01/25 03:11:34;;;;;;;2.55;1.15;;;6.70;99.90;;;;;;4966940;28;20427;-78
2024/01/25 03:14:01;;;;;;;0.98;0.98;;;6.90;99.90;;;;;;4976555;28;20213;-82
2024/01/25 03:16:28;;;;;;;1.35;1.35;;;6.90;99.90;;;;;;4973779;28;20226;-80
2024/01/25 03:18:56;;;;;;;0.80;0.80;;;6.90;99.90;;;;;;4968450;28;20210;-77
2024/01/25 03:21:23;;;;;;;1.77;1.13;;;6.80;99.90;;;;;;4973390;28;20207;-80
2024/01/25 03:23:51;;;;;;;0.50;0.50;;;7.00;99.90;;;;;;4973522;28;20421;-78
2024/01/25 03:26:18;;;;;;;0.52;0.52;;;7.00;99.90;;;;;;4980150;28;20219;-80
2024/01/25 03:28:45;;;;;;;0.85;0.85;;;6.90;99.90;;;;;;4978732;28;20208;-80
2024/01/25 03:31:13;;;;;;;0.52;0.52;;;6.90;99.90;;;;;;4975134;28;20259;-82
2024/01/25 03:33:39;;;;;;;0.50;0.50;;;7.00;99.90;;;;;;4953438;28;20206;-81
2024/01/25 03:36:07;;;;;;;1.02;0.82;;;6.90;99.90;;;;;;4976558;28;20222;-81
2024/01/25 03:38:34;;;;;;;3.00;2.80;;;6.90;99.90;;;;;;4975336;28;20548;-79
2024/01/25 03:41:01;;;;;;;0.90;0.90;;;6.80;99.90;;;;;;4950123;28;20202;-78
2024/01/25 03:43:28;;;;;;;0.65;0.65;;;6.90;99.90;;;;;;4978978;28;20391;-80
2024/01/25 03:46:08;;;;;;;0.60;0.60;;;6.90;99.90;;;;;;4978511;28;20200;-78
2024/01/25 03:48:35;;;;;;;3.53;2.72;;;6.90;99.90;;;;;;4973107;28;20204;-82
2024/01/25 03:51:02;;;;;;;0.50;0.50;;;7.00;99.90;;;;;;4971102;28;20212;-82
2024/01/25 03:53:29;;;;;;;0.50;0.50;;;7.00;99.90;;;;;;4991210;28;20270;-81
2024/01/25 03:55:57;;;;;;;0.60;0.60;;;7.00;99.90;;;;;;4996278;28;20301;-82
2024/01/25 03:58:24;;;;;;;0.60;0.60;;;6.90;99.90;;;;;;4997803;28;20218;-83
2024/01/25 04:00:52;;;;;;;1.05;1.05;;;7.00;99.90;;;;;;4976275;28;20225;-78
2024/01/25 04:03:19;;;;;;;1.90;1.80;;;6.90;99.90;;;;;;4979844;28;20203;-82
2024/01/25 04:05:46;;;;;;;0.52;0.52;;;6.80;99.90;;;;;;4993103;28;20212;-78
2024/01/25 04:08:13;;;;;;;0.50;0.50;;;6.90;99.90;;;;;;4989310;28;20209;-82
2024/01/25 04:10:40;;;;;;;0.50;0.50;;;7.00;99.90;;;;;;4976581;28;20205;-79
2024/01/25 04:13:07;;;;;;;1.63;1.45;;;6.90;99.90;;;;;;4982904;28;20497;-80
2024/01/25 04:15:34;;;;;;;0.50;0.50;;;6.80;99.90;;;;;;4988656;28;20229;-83
2024/01/25 04:18:03;;;;;;;0.50;0.50;;;6.90;99.90;;;;;;5001571;28;20186;-82
2024/01/25 04:20:31;;;;;;;0.75;0.75;;;6.80;99.90;;;;;;4998114;28;20224;-85
2024/01/25 04:22:59;;;;;;;0.50;0.50;;;7.00;99.90;;;;;;4987905;28;20230;-78
2024/01/25 04:25:26;;;;;;;0.60;0.60;;;6.90;99.90;;;;;;4990036;28;20504;-79
2024/01/25 04:27:55;;;;;;;1.30;1.02;;;6.90;99.90;;;;;;4981705;28;20274;-80
2024/01/25 04:30:22;;;;;;;0.50;0.50;;;6.90;99.90;;;;;;4976987;28;20211;-78
2024/01/25 04:32:49;;;;;;;0.50;0.50;;;6.90;99.90;;;;;;4977451;28;20241;-80
2024/01/25 04:35:16;;;;;;;0.50;0.50;;;6.90;99.90;;;;;;4973542;28;20250;-82
2024/01/25 04:37:43;;;;;;;1.17;1.17;;;6.80;99.90;;;;;;4983643;28;20230;-81
2024/01/25 04:40:10;;;;;;;0.50;0.50;;;6.80;99.90;;;;;;4979459;28;20218;-77
2024/01/25 04:42:37;;;;;;;0.88;0.88;;;6.80;99.90;;;;;;4959904;28;20276;-79
2024/01/25 04:45:07;;;;;;;0.50;0.50;;;6.80;99.90;;;;;;4988429;28;20239;-81
2024/01/25 04:47:34;;;;;;;1.05;0.80;;;6.60;99.90;;;;;;4978458;28;20274;-80
2024/01/25 04:50:02;;;;;;;0.98;0.98;;;6.60;99.90;;;;;;4982507;28;20202;-78
2024/01/25 04:52:29;;;;;;;0.50;0.50;;;6.60;99.90;;;;;;4978247;28;20202;-81
2024/01/25 04:54:58;;;;;;;0.50;0.50;;;6.50;99.90;;;;;;4967485;28;20200;-78
2024/01/25 04:57:25;;;;;;;0.50;0.50;;;6.30;99.90;;;;;;4975676;28;20240;-80
2024/01/25 04:59:52;;;;;;;0.47;0.47;;;6.50;99.90;;;;;;4959556;28;20213;-79
2024/01/25 05:02:19;;;;;;;0.50;0.50;;;6.50;99.90;;;;;;4981676;28;20542;-79
2024/01/25 05:04:47;;;;;;;0.55;0.55;;;6.40;99.90;;;;;;4977678;28;20227;-81
2024/01/25 05:07:13;;;;;;;2.15;1.40;;;6.60;99.90;;;;;;4984543;28;20213;-81
2024/01/25 05:09:41;;;;;;;0.50;0.50;;;6.40;99.90;;;;;;4983912;28;20583;-81
2024/01/25 05:12:08;;;;;;;0.60;0.60;;;6.50;99.90;;;;;;4979298;28;20263;-79
2024/01/25 05:14:38;;;;;;;0.50;0.50;;;6.50;99.90;;;;;;4981379;28;20278;-77
2024/01/25 05:17:05;;;;;;;2.63;1.35;;;6.50;99.90;;;;;;4964607;28;20225;-81
2024/01/25 05:19:32;;;;;;;0.50;0.50;;;6.60;99.90;;;;;;4979106;28;20214;-80
2024/01/25 05:22:00;;;;;;;0.55;0.55;;;6.50;99.90;;;;;;4979210;28;20275;-78
2024/01/25 05:24:29;;;;;;;0.43;0.43;;;6.60;99.90;;;;;;4979173;28;20344;-81
2024/01/25 05:26:56;;;;;;;0.50;0.50;;;6.70;99.90;;;;;;4960453;28;20270;-79
2024/01/25 05:29:24;;;;;;;1.40;1.30;;;6.50;99.90;;;;;;4972713;28;20274;-79
2024/01/25 05:31:51;;;;;;;3.17;2.97;;;6.60;99.90;;;;;;4978132;28;20306;-80
2024/01/25 05:34:19;;;;;;;1.92;1.83;;;6.40;99.90;;;;;;4971235;28;20428;-77
2024/01/25 05:36:46;;;;;;;1.58;1.25;;;6.50;99.90;;;;;;4971719;28;20235;-83
2024/01/25 05:39:17;;;;;;;0.40;0.40;;;6.50;99.90;;;;;;4969793;28;20199;-82
2024/01/25 05:41:46;;;;;;;0.50;0.50;;;6.40;99.90;;;;;;4962729;28;20272;-79
2024/01/25 05:44:13;;;;;;;1.05;1.05;;;6.50;99.90;;;;;;4974329;28;20216;-81
2024/01/25 05:46:40;;;;;;;0.60;0.60;;;6.40;99.90;;;;;;4976411;28;20225;-80
2024/01/25 05:49:08;;;;;;;1.77;1.67;;;6.30;99.90;;;;;;4969764;28;20207;-78
2024/01/25 05:51:35;;;;;;;0.70;0.70;;;6.30;99.90;;;;;;4962859;28;20276;-80
2024/01/25 05:54:03;;;;;;;0.63;0.63;;;6.40;99.90;;;;;;4975038;28;20487;-79
2024/01/25 05:56:32;;;;;;;0.50;0.50;;;6.30;99.90;;;;;;4966789;28;20757;-78
2024/01/25 05:58:59;;;;;;;5.25;0.80;;;6.30;99.90;;;;;;4962980;28;20201;-80
2024/01/25 06:01:26;;;;;;;0.50;0.50;;;6.30;99.90;;;;;;4954153;28;20199;-78
2024/01/25 06:03:53;;;;;;;0.65;0.65;;;6.30;99.90;;;;;;4967428;28;20237;-82
2024/01/25 06:06:20;;;;;;;0.50;0.50;;;6.30;99.90;;;;;;4957078;28;20320;-82
2024/01/25 06:08:47;;;;;;;2.45;2.35;;;6.30;99.90;;;;;;4957663;28;20202;-80
2024/01/25 06:11:27;;;;;;;0.60;0.60;;;6.20;99.90;;;;;;4969481;28;20282;-82
2024/01/25 06:13:54;;;;;;;0.80;0.80;;;6.30;99.90;;;;;;4980379;28;20249;-80
2024/01/25 06:16:21;;;;;;;1.67;1.20;;;6.30;99.90;;;;;;4980684;28;20237;-81
2024/01/25 06:18:48;;;;;;;0.50;0.50;;;6.20;99.90;;;;;;4974373;28;20213;-80
2024/01/25 06:21:16;;;;;;;1.10;1.10;;;6.30;99.90;;;;;;4975472;28;20208;-80
2024/01/25 06:23:43;;;;;;;11.65;2.42;;;6.30;99.90;;;;;;4975465;28;20465;-83
2024/01/25 06:26:10;;;;;;;0.75;0.75;;;6.20;99.90;;;;;;4987657;28;20220;-81
2024/01/25 06:28:37;;;;;;;0.50;0.50;;;6.20;99.90;;;;;;4986808;28;20206;-78
2024/01/25 06:31:03;;;;;;;0.40;0.40;;;6.30;99.90;;;;;;4977079;28;20273;-81
2024/01/25 06:33:31;;;;;;;1.02;1.02;;;6.30;99.90;;;;;;4977007;28;20234;-80
2024/01/25 06:35:58;;;;;;;0.60;0.60;;;6.40;99.90;;;;;;4968793;28;20261;-78
2024/01/25 06:38:25;;;;;;;0.50;0.50;;;6.50;99.90;;;;;;4971163;28;20222;-79
2024/01/25 06:40:54;;;;;;;0.50;0.50;;;6.50;99.90;;;;;;4982390;28;20209;-83
2024/01/25 06:43:20;;;;;;;0.60;0.60;;;6.40;99.90;;;;;;4972029;28;20454;-82
2024/01/25 06:45:47;;;;;;;1.63;1.25;;;6.50;99.90;;;;;;4957484;28;20272;-82
2024/01/25 06:48:15;;;;;;;2.47;2.38;;;6.40;99.90;;;;;;4973308;28;20195;-82
2024/01/25 06:50:42;;;;;;;0.50;0.50;;;6.40;99.90;;;;;;4994668;28;20217;-81
2024/01/25 06:53:10;;;;;;;6.18;1.20;;;6.50;99.90;;;;;;4988601;28;20210;-81
2024/01/25 06:55:37;;;;;;;0.50;0.50;;;6.50;99.90;;;;;;4990376;28;20270;-82
2024/01/25 06:58:04;;;;;;;0.60;0.60;;;6.60;99.90;;;;;;4978703;28;20264;-79
2024/01/25 07:00:31;;;;;;;4.53;3.08;;;6.60;99.90;;;;;;4984105;28;20211;-82
2024/01/25 07:02:58;;;;;;;0.50;0.50;;;6.60;99.90;;;;;;4956539;28;20262;-78
2024/01/25 07:05:26;;;;;;;0.50;0.50;;;6.60;99.90;;;;;;4953058;28;20277;-80
2024/01/25 07:07:53;;;;;;;0.50;0.50;;;6.70;99.90;;;;;;4972565;28;20278;-80
2024/01/25 07:10:21;;;;;;;3.58;3.28;;;6.70;99.90;;;;;;4982363;28;20209;-80
2024/01/25 07:12:48;;;;;;;0.57;0.57;;;6.70;99.90;;;;;;4973488;28;20218;-79
2024/01/25 07:15:17;;;;;;;3.10;2.85;;;6.70;99.90;;;;;;4976553;28;20198;-79
2024/01/25 07:17:44;;;;;;;0.50;0.50;;;6.80;99.90;;;;;;4951757;28;20255;-83
2024/01/25 07:20:11;;;;;;;0.50;0.50;;;6.80;99.90;;;;;;4966982;28;20214;-80
2024/01/25 07:22:39;;;;;;;1.10;1.10;;;6.80;99.90;;;;;;4959814;28;20207;-78
2024/01/25 07:25:08;;;;;;;0.50;0.50;;;6.80;99.90;;;;;;4978032;28;20248;-79
2024/01/25 07:27:35;;;;;;;0.40;0.40;;;6.80;99.90;;;;;;4971623;28;20212;-82
2024/01/25 07:30:02;;;;;;;0.60;0.60;;;6.90;99.90;;;;;;4970895;28;20205;-81
2024/01/25 07:32:29;;;;;;;0.65;0.65;;;7.00;99.90;;;;;;4972958;28;20215;-80
2024/01/25 07:34:56;;;;;;;0.50;0.50;;;7.00;99.90;;;;;;4967664;28;20217;-79
2024/01/25 07:37:24;;;;;;;0.50;0.50;;;7.00;99.90;;;;;;4973028;28;20227;-81
2024/01/25 07:39:51;;;;;;;0.90;0.90;;;7.10;99.90;;;;;;4983096;28;20574;-79
2024/01/25 07:42:18;;;;;;;0.50;0.50;;;7.00;99.90;;;;;;4967478;28;20501;-81
2024/01/25 07:44:45;;;;;;;0.50;0.50;;;7.00;99.90;;;;;;4974685;28;20540;-81
2024/01/25 07:47:13;;;;;;;5.03;4.15;;;7.00;99.90;;;;;;4967918;28;20240;-81
2024/01/25 07:49:41;;;;;;;0.50;0.50;;;7.00;99.90;;;;;;4972701;28;20285;-78
2024/01/25 07:52:08;;;;;;;1.02;1.02;;;7.00;99.90;;;;;;4957820;28;20424;-79
2024/01/25 07:54:36;;;;;;;2.15;0.95;;;7.10;99.90;;;;;;4967358;28;20271;-79
2024/01/25 07:57:03;;;;;;;0.50;0.50;;;7.10;99.90;;;;;;4960515;28;20242;-81
2024/01/25 07:59:30;;;;;;;1.65;1.55;;;7.20;99.90;;;;;;4979119;28;20269;-83
2024/01/25 08:01:57;;;;;;;0.60;0.60;;;7.20;99.90;;;;;;4984349;28;20258;-81
2024/01/25 08:04:24;;;;;;;0.82;0.82;;;7.20;99.90;;;;;;4974831;28;20291;-80
2024/01/25 08:06:52;;;;;;;0.50;0.50;;;7.20;99.90;;;;;;4955996;28;20203;-79
2024/01/25 08:09:19;;;;;;;0.70;0.70;;;7.20;99.90;;;;;;4956344;28;20249;-77
2024/01/25 08:11:47;;;;;;;1.17;1.17;;;7.20;99.90;;;;;;4981064;28;20214;-78
2024/01/25 08:14:13;;;;;;;8.40;3.25;;;7.20;99.90;;;;;;4966439;28;20203;-79
2024/01/25 08:16:41;;;;;;;0.50;0.50;;;7.30;99.90;;;;;;4975693;28;20238;-82
2024/01/25 08:19:08;;;;;;;0.70;0.70;;;7.20;99.90;;;;;;4971430;28;20281;-84
2024/01/25 08:21:36;;;;;;;0.50;0.50;;;7.30;99.90;;;;;;4949350;28;20206;-79
2024/01/25 08:24:04;;;;;;;1.85;1.75;;;7.30;99.90;;;;;;4972884;28;20245;-79
2024/01/25 08:26:31;;;;;;;0.50;0.50;;;7.30;99.90;;;;;;4975913;28;20261;-79
2024/01/25 08:28:58;;;;;;;0.60;0.60;;;7.20;99.90;;;;;;4982209;28;20203;-79
2024/01/25 08:31:25;;;;;;;0.60;0.60;;;7.30;99.90;;;;;;4983324;28;20211;-83
2024/01/25 08:33:52;;;;;;;1.02;1.02;;;7.30;99.90;;;;;;4973625;28;20403;-80
2024/01/25 08:36:20;;;;;;;1.73;1.73;;;7.30;99.90;;;;;;4973262;28;20221;-80
2024/01/25 08:38:47;;;;;;;0.60;0.60;;;7.30;99.90;;;;;;4983973;28;20198;-80
2024/01/25 08:41:15;;;;;;;0.50;0.50;;;7.30;99.90;;;;;;4955856;28;20237;-80
2024/01/25 08:43:42;;;;;;;0.50;0.50;;;7.30;99.90;;;;;;4985430;28;20270;-80
2024/01/25 08:46:09;;;;;;;1.13;1.08;;;7.30;99.90;;;;;;4966648;28;20209;-79
2024/01/25 08:48:36;;;;;;;0.70;0.70;;;7.30;99.90;;;;;;4980353;28;20207;-79
2024/01/25 08:51:03;;;;;;;0.70;0.70;;;7.40;99.90;;;;;;4984973;28;20206;-79
2024/01/25 08:53:30;;;;;;;0.73;0.73;;;7.40;99.90;;;;;;4981641;28;20217;-79
2024/01/25 08:55:57;;;;;;;0.80;0.80;;;7.40;99.90;;;;;;4976517;28;20514;-81
2024/01/25 08:58:24;;;;;;;0.50;0.50;;;7.50;99.90;;;;;;4959943;28;20293;-82
2024/01/25 09:00:51;;;;;;;0.60;0.60;;;7.40;99.90;;;;;;4959656;28;20203;-81
2024/01/25 09:03:18;;;;;;;1.35;1.25;;;7.50;99.90;;;;;;4971140;28;20206;-79
2024/01/25 09:05:45;;;;;;;0.60;0.60;;;7.40;99.90;;;;;;4973276;28;20454;-85
2024/01/25 09:08:14;;;;;;;3.80;1.92;;;7.50;99.90;;;;;;4972063;28;20267;-82
2024/01/25 09:10:41;;;;;;;0.60;0.60;;;7.50;99.90;;;;;;4970845;28;20203;-84
2024/01/25 09:13:09;;;;;;;0.50;0.50;;;7.50;99.90;;;;;;4976440;28;20550;-80
2024/01/25 09:15:36;;;;;;;0.50;0.50;;;7.60;99.90;;;;;;4962102;28;20202;-80
2024/01/25 09:18:03;;;;;;;0.60;0.60;;;7.60;99.90;;;;;;4973966;28;20290;-82
2024/01/25 09:20:31;;;;;;;0.50;0.50;;;7.70;99.90;;;;;;4952626;28;20272;-80
2024/01/25 09:22:58;;;;;;;0.50;0.50;;;7.60;99.90;;;;;;4969119;28;20226;-82
2024/01/25 09:25:25;;;;;;;2.00;1.90;;;7.50;99.90;;;;;;4968089;28;20250;-81
2024/01/25 09:27:52;;;;;;;0.90;0.90;;;7.60;99.90;;;;;;4983445;28;20210;-78
2024/01/25 09:30:20;;;;;;;2.88;2.67;;;7.60;99.90;;;;;;4980894;28;20210;-80
2024/01/25 09:32:48;;;;;;;0.50;0.50;;;7.70;99.90;;;;;;4966395;28;20209;-77
2024/01/25 09:35:16;;;;;;;0.50;0.50;;;7.70;99.90;;;;;;4982946;28;20364;-79
2024/01/25 09:37:43;;;;;;;2.45;2.35;;;7.70;99.90;;;;;;4960263;28;20230;-80
2024/01/25 09:40:10;;;;;;;0.60;0.60;;;7.80;99.90;;;;;;4975255;28;20255;-79
2024/01/25 09:42:38;;;;;;;0.50;0.50;;;7.80;99.90;;;;;;4981010;28;20198;-83
2024/01/25 09:45:15;;;;;;;0.60;0.60;;;7.80;99.90;;;;;;4988204;28;20209;-84
2024/01/25 09:47:42;;;;;;;0.70;0.70;;;7.80;99.90;;;;;;4974441;28;20223;-81
2024/01/25 09:50:10;;;;;;;0.50;0.50;;;7.70;99.90;;;;;;4965937;28;20206;-79
2024/01/25 09:52:38;;;;;;;0.60;0.60;;;7.70;99.90;;;;;;4962227;28;20202;-81
2024/01/25 09:55:07;;;;;;;1.90;1.80;;;7.80;99.90;;;;;;4964010;28;20264;-82
2024/01/25 09:57:37;;;;;;;3.50;2.35;;;7.80;99.90;;;;;;4979227;28;20230;-78
2024/01/25 10:00:05;;;;;;;0.70;0.70;;;7.80;99.90;;;;;;4964307;28;20601;-81
2024/01/25 10:02:32;;;;;;;0.50;0.50;;;7.80;99.90;;;;;;4981004;28;20226;-81
2024/01/25 10:05:00;;;;;;;0.57;0.57;;;7.90;99.90;;;;;;4961022;28;20203;-81
2024/01/25 10:07:41;;;;;;;0.82;0.82;;;7.90;99.90;;;;;;4979588;28;20211;-82
2024/01/25 10:10:10;;;;;;;0.60;0.60;;;7.90;99.90;;;;;;4957617;28;20203;-81
2024/01/25 10:12:42;;;;;;;0.50;0.50;;;8.00;99.90;;;;;;4992256;28;20214;-82
2024/01/25 10:15:10;;;;;;;0.50;0.50;;;8.10;99.90;;;;;;4984041;28;20206;-82
2024/01/25 10:17:38;;;;;;;0.50;0.50;;;8.00;99.90;;;;;;4998552;28;20222;-83
2024/01/25 10:20:26;;;;;;;1.42;1.13;;;8.00;99.90;;;;;;4992275;28;20197;-83
2024/01/25 10:22:58;;;;;;;0.50;0.50;;;8.00;99.90;;;;;;4981503;28;20234;-83
2024/01/25 10:25:27;;;;;;;0.50;0.50;;;8.00;99.90;;;;;;4968865;28;20211;-82
2024/01/25 10:27:55;;;;;;;0.60;0.60;;;8.00;99.90;;;;;;4986251;28;20242;-81
2024/01/25 10:30:23;;;;;;;10.32;3.15;;;8.00;99.90;;;;;;4985771;28;20229;-82
2024/01/25 10:32:52;;;;;;;0.50;0.50;;;8.00;99.90;;;;;;4992483;28;20203;-81
2024/01/25 10:35:20;;;;;;;0.73;0.73;;;8.10;99.90;;;;;;4964743;28;20390;-79
2024/01/25 10:37:52;;;;;;;0.60;0.60;;;8.10;99.90;;;;;;4959053;28;20227;-79
2024/01/25 10:40:19;;;;;;;0.60;0.60;;;8.20;99.90;;;;;;4984642;28;20202;-79
2024/01/25 10:42:47;;;;;;;3.65;1.55;;;8.20;99.90;;;;;;4958598;28;20234;-81
2024/01/25 10:45:14;;;;;;;0.60;0.60;;;8.20;99.90;;;;;;4987639;28;20369;-77
2024/01/25 10:47:42;;;;;;;0.70;0.70;;;8.20;99.90;;;;;;4957188;28;20203;-78
2024/01/25 10:50:11;;;;;;;0.55;0.55;;;8.30;99.90;;;;;;4970969;28;20434;-81
2024/01/25 10:52:41;;;;;;;1.15;1.15;;;8.30;99.90;;;;;;4990649;28;20269;-80
2024/01/25 10:55:09;;;;;;;1.00;1.00;;;8.30;99.90;;;;;;4966688;28;20203;-78
2024/01/25 10:57:44;;;;;;;0.70;0.70;;;8.40;99.90;;;;;;4979357;28;20226;-79
2024/01/25 11:00:13;;;;;;;1.60;1.50;;;8.30;99.90;;;;;;4973289;28;20198;-80
2024/01/25 11:02:40;;;;;;;0.60;0.60;;;8.20;99.90;;;;;;4968284;28;20206;-80
2024/01/25 11:05:13;;;;;;;0.60;0.60;;;8.20;99.90;;;;;;4972277;28;20206;-78
2024/01/25 11:07:49;;;;;;;1.42;1.42;;;8.10;99.90;;;;;;4969080;28;20203;-79
2024/01/25 11:10:19;;;;;;;0.60;0.60;;;8.20;99.90;;;;;;4968818;28;20206;-79
2024/01/25 11:12:58;;;;;;;0.60;0.60;;;8.10;99.90;;;;;;4977625;28;20498;-77
2024/01/25 11:15:33;;;;;;;0.60;0.60;;;8.10;99.90;;;;;;4976942;28;20202;-83
2024/01/25 11:18:02;;;;;;;0.60;0.60;;;8.20;99.90;;;;;;4971152;28;20233;-79
2024/01/25 11:20:30;;;;;;;5.85;2.67;;;8.10;99.90;;;;;;4975268;28;20376;-79
2024/01/25 11:23:01;;;;;;;0.50;0.50;;;8.10;99.90;;;;;;4960920;28;20199;-79
2024/01/25 11:25:30;;;;;;;0.60;0.60;;;8.10;99.90;;;;;;4968656;28;20241;-81
2024/01/25 11:27:58;;;;;;;0.60;0.60;;;7.90;99.90;;;;;;4975207;28;20206;-81
2024/01/25 11:30:26;;;;;;;0.70;0.70;;;7.90;99.90;;;;;;4975117;28;20203;-80
2024/01/25 11:32:53;;;;;;;1.73;1.63;;;8.00;99.90;;;;;;4955627;28;20240;-81
2024/01/25 11:35:21;;;;;;;1.42;1.33;;;7.90;99.90;;;;;;4981310;28;20206;-83
2024/01/25 11:37:52;;;;;;;0.60;0.60;;;8.10;99.90;;;;;;4998901;28;20234;-81
2024/01/25 11:40:20;;;;;;;0.60;0.60;;;8.00;99.90;;;;;;4975055;28;20206;-82
2024/01/25 11:42:49;;;;;;;0.60;0.60;;;8.00;99.90;;;;;;4978158;28;20198;-81
2024/01/25 11:45:17;;;;;;;1.63;1.52;;;8.00;99.90;;;;;;4976190;28;20202;-80
2024/01/25 11:47:45;;;;;;;0.50;0.50;;;7.90;99.90;;;;;;4977647;28;20203;-78
2024/01/25 11:50:12;;;;;;;0.70;0.70;;;8.00;99.90;;;;;;4970901;28;20203;-79
2024/01/25 11:52:40;;;;;;;0.70;0.70;;;8.00;99.90;;;;;;4973622;28;20202;-79
2024/01/25 11:55:08;;;;;;;0.50;0.50;;;8.00;99.90;;;;;;4968088;28;20207;-78
2024/01/25 11:57:43;;;;;;;0.50;0.50;;;8.10;99.90;;;;;;4958820;28;20230;-79
2024/01/25 12:00:14;;;;;;;0.80;0.80;;;8.10;99.90;;;;;;4973332;28;20207;-80
2024/01/25 12:02:42;;;;;;;0.70;0.70;;;8.10;99.90;;;;;;4979131;28;20195;-81
2024/01/25 12:05:11;;;;;;;7.47;2.35;;;8.10;99.90;;;;;;4967168;28;20235;-80
2024/01/25 12:07:39;;;;;;;1.00;1.00;;;8.00;99.90;;;;;;4979224;28;20207;-80
2024/01/25 12:10:10;;;;;;;0.73;0.73;;;8.10;99.90;;;;;;4985290;28;20230;-78
2024/01/25 12:12:38;;;;;;;0.65;0.65;;;8.20;99.90;;;;;;4980712;28;20252;-80
2024/01/25 12:15:07;;;;;;;1.92;1.80;;;8.20;99.90;;;;;;4975084;28;20266;-81
2024/01/25 12:17:39;;;;;;;0.70;0.70;;;8.20;99.90;;;;;;4986911;28;20294;-81
2024/01/25 12:20:13;;;;;;;1.75;1.63;;;8.20;99.90;;;;;;4975827;28;20226;-81
2024/01/25 12:22:41;;;;;;;0.60;0.60;;;8.20;99.90;;;;;;4960503;28;20198;-82
2024/01/25 12:25:13;;;;;;;1.02;1.02;;;8.20;99.90;;;;;;4982175;28;20213;-81
2024/01/25 12:27:41;;;;;;;0.60;0.60;;;8.30;99.90;;;;;;4982871;28;20198;-81
2024/01/25 12:30:10;;;;;;;0.60;0.60;;;8.30;99.90;;;;;;4981595;28;20199;-80
2024/01/25 12:32:37;;;;;;;0.60;0.60;;;8.30;99.90;;;;;;4961863;28;20202;-80
2024/01/25 12:35:05;;;;;;;1.00;1.00;;;8.30;99.90;;;;;;4989981;28;20198;-81
2024/01/25 12:37:32;;;;;;;0.70;0.70;;;8.30;99.90;;;;;;4989829;28;20222;-85
2024/01/25 12:39:59;;;;;;;2.45;1.92;;;8.30;99.90;;;;;;4989843;28;20206;-81
2024/01/25 12:42:27;;;;;;;2.35;2.15;;;8.30;99.90;;;;;;4980884;28;20383;-80
2024/01/25 12:44:54;;;;;;;0.70;0.70;;;8.30;99.90;;;;;;4983057;28;20368;-79
2024/01/25 12:47:28;;;;;;;1.13;1.13;;;8.30;99.90;;;;;;4978680;28;20194;-79
2024/01/25 12:49:56;;;;;;;1.30;1.27;;;8.20;99.90;;;;;;4974679;28;20199;-79
2024/01/25 12:52:22;;;;;;;0.70;0.70;;;8.30;99.90;;;;;;4979409;28;20230;-77
2024/01/25 12:54:49;;;;;;;0.60;0.60;;;8.30;99.90;;;;;;4977187;28;20265;-79
2024/01/25 12:57:17;;;;;;;0.50;0.50;;;8.30;99.90;;;;;;4980402;28;20420;-81
2024/01/25 12:59:45;;;;;;;0.60;0.60;;;8.30;99.90;;;;;;4983070;28;20206;-78
2024/01/25 13:02:12;;;;;;;0.80;0.80;;;8.20;99.90;;;;;;4966231;28;20198;-80